createdAt,value
2019-03-08T00:00:27.089Z,7.87
2019-03-08T00:02:54.305Z,12.13
2019-03-08T00:05:21.692Z,7.10
2019-03-08T00:07:48.953Z,5.47
2019-03-08T00:10:16.300Z,9.27
2019-03-08T00:12:43.743Z,7.13
2019-03-08T00:15:11.456Z,6.80
2019-03-08T00:17:38.672Z,12.30
2019-03-08T00:20:06.468Z,8.33
2019-03-08T00:22:33.706Z,5.80
2019-03-08T00:25:00.971Z,7.77
2019-03-08T00:27:28.260Z,6.33
2019-03-08T00:29:55.497Z,9.60
2019-03-08T00:32:22.769Z,6.57
2019-03-08T00:34:50.171Z,8.83
2019-03-08T00:37:17.613Z,7.73
2019-03-08T00:39:44.872Z,9.60
2019-03-08T00:42:12.102Z,9.67
2019-03-08T00:44:39.479Z,9.10
2019-03-08T00:47:06.709Z,14.03
2019-03-08T00:49:33.969Z,9.90
2019-03-08T00:52:01.248Z,9.90
2019-03-08T00:54:28.701Z,9.07
2019-03-08T00:56:55.938Z,11.57
2019-03-08T00:59:23.200Z,9.27
2019-03-08T01:01:50.461Z,8.77
2019-03-08T01:04:17.726Z,10.60
2019-03-08T01:06:44.990Z,8.33
2019-03-08T01:09:12.209Z,12.90
2019-03-08T01:11:39.486Z,9.33
2019-03-08T01:14:08.014Z,11.70
2019-03-08T01:16:35.279Z,9.57
2019-03-08T01:19:02.542Z,10.63
2019-03-08T01:21:29.866Z,14.37
2019-03-08T01:23:57.131Z,11.43
2019-03-08T01:26:24.375Z,8.80
2019-03-08T01:28:51.623Z,9.87
2019-03-08T01:31:18.884Z,9.10
2019-03-08T01:33:46.104Z,10.10
2019-03-08T01:36:13.355Z,7.73
2019-03-08T01:38:40.616Z,7.40
2019-03-08T01:41:07.859Z,14.57
2019-03-08T01:43:35.319Z,11.80
2019-03-08T01:46:02.570Z,12.70
2019-03-08T01:48:29.895Z,13.50
2019-03-08T01:50:57.229Z,8.03
2019-03-08T01:53:24.466Z,8.60
2019-03-08T01:55:51.718Z,8.23
2019-03-08T01:58:19.005Z,9.47
2019-03-08T02:00:46.350Z,10.67
2019-03-08T02:03:13.586Z,10.53
2019-03-08T02:05:40.874Z,8.07
2019-03-08T02:08:08.146Z,9.77
2019-03-08T02:10:35.500Z,7.00
2019-03-08T02:13:02.994Z,8.20
2019-03-08T02:15:30.613Z,9.17
2019-03-08T02:17:57.879Z,10.37
2019-03-08T02:20:25.181Z,12.53
2019-03-08T02:22:52.459Z,12.33
2019-03-08T02:25:19.824Z,15.80
2019-03-08T02:27:48.509Z,17.87
2019-03-08T02:30:18.833Z,19.60
2019-03-08T02:32:46.176Z,15.67
2019-03-08T02:35:14.956Z,17.07
2019-03-08T02:37:42.234Z,13.83
2019-03-08T02:40:30.020Z,10.73
2019-03-08T02:42:57.914Z,12.10
2019-03-08T02:45:25.276Z,15.37
2019-03-08T02:47:52.555Z,13.43
2019-03-08T02:50:19.858Z,10.80
2019-03-08T02:52:47.109Z,15.80
2019-03-08T02:55:14.409Z,15.10
2019-03-08T02:57:41.654Z,17.33
2019-03-08T03:00:09.551Z,14.47
2019-03-08T03:02:36.841Z,17.13
2019-03-08T03:05:04.522Z,13.67
2019-03-08T03:07:31.746Z,17.10
2019-03-08T03:09:59.067Z,16.60
2019-03-08T03:12:26.296Z,13.70
2019-03-08T03:14:53.740Z,19.80
2019-03-08T03:17:21.042Z,10.00
2019-03-08T03:19:48.267Z,12.50
2019-03-08T03:22:15.502Z,27.43
2019-03-08T03:24:42.887Z,12.23
2019-03-08T03:27:10.132Z,16.50
2019-03-08T03:29:37.360Z,16.17
2019-03-08T03:32:04.829Z,17.93
2019-03-08T03:34:32.074Z,20.77
2019-03-08T03:36:59.378Z,23.50
2019-03-08T03:39:26.618Z,26.20
2019-03-08T03:41:53.937Z,24.97
2019-03-08T03:44:21.197Z,23.20
2019-03-08T03:46:48.436Z,26.47
2019-03-08T03:49:15.695Z,22.47
2019-03-08T03:51:42.942Z,29.57
2019-03-08T03:54:10.197Z,18.80
2019-03-08T03:56:37.479Z,27.47
2019-03-08T03:59:04.728Z,31.87
2019-03-08T04:01:36.286Z,31.17
2019-03-08T04:04:03.923Z,29.10
2019-03-08T04:06:31.157Z,23.77
2019-03-08T04:08:58.462Z,28.93
2019-03-08T04:11:25.707Z,22.27
2019-03-08T04:13:52.963Z,22.03
2019-03-08T04:16:20.205Z,26.83
2019-03-08T04:18:47.487Z,28.20
2019-03-08T04:21:14.763Z,31.37
2019-03-08T04:23:42.267Z,26.10
2019-03-08T04:26:09.540Z,34.30
2019-03-08T04:28:36.785Z,35.97
2019-03-08T04:31:04.059Z,36.97
2019-03-08T04:33:31.289Z,37.23
2019-03-08T04:35:58.529Z,30.03
2019-03-08T04:38:25.803Z,38.73
2019-03-08T04:40:53.045Z,28.13
2019-03-08T04:43:20.289Z,36.20
2019-03-08T04:45:47.583Z,35.57
2019-03-08T04:48:14.823Z,20.63
2019-03-08T04:50:42.239Z,26.10
2019-03-08T04:53:09.484Z,21.73
2019-03-08T04:55:36.726Z,21.27
2019-03-08T04:58:04.003Z,24.67
2019-03-08T05:00:31.239Z,19.83
2019-03-08T05:02:58.495Z,29.23
2019-03-08T05:05:25.772Z,30.03
2019-03-08T05:07:53.001Z,32.90
2019-03-08T05:10:22.836Z,26.60
2019-03-08T05:12:50.073Z,28.50
2019-03-08T05:15:17.310Z,24.13
2019-03-08T05:17:44.561Z,29.97
2019-03-08T05:20:11.922Z,28.00
2019-03-08T05:22:39.256Z,28.30
2019-03-08T05:25:06.788Z,25.87
2019-03-08T05:27:34.230Z,24.13
2019-03-08T05:30:01.511Z,23.00
2019-03-08T05:32:28.840Z,30.87
2019-03-08T05:34:56.073Z,26.73
2019-03-08T05:37:23.340Z,26.23
2019-03-08T05:39:50.559Z,26.70
2019-03-08T05:42:17.826Z,24.30
2019-03-08T05:44:45.099Z,26.43
2019-03-08T05:47:12.431Z,24.93
2019-03-08T05:49:39.717Z,26.90
2019-03-08T05:52:07.094Z,26.43
2019-03-08T05:54:34.331Z,23.63
2019-03-08T05:57:01.610Z,28.97
2019-03-08T05:59:28.878Z,19.57
2019-03-08T06:01:56.142Z,17.63
2019-03-08T06:04:23.413Z,10.30
2019-03-08T06:06:50.997Z,12.87
2019-03-08T06:09:18.270Z,14.37
2019-03-08T06:11:45.509Z,15.33
2019-03-08T06:14:12.819Z,17.90
2019-03-08T06:16:40.071Z,20.07
2019-03-08T06:19:07.438Z,16.10
2019-03-08T06:21:34.716Z,18.80
2019-03-08T06:24:02.004Z,20.70
2019-03-08T06:26:29.263Z,23.83
2019-03-08T06:28:56.540Z,33.33
2019-03-08T06:31:23.792Z,25.03
2019-03-08T06:33:51.062Z,31.43
2019-03-08T06:36:18.539Z,27.00
2019-03-08T06:38:45.812Z,29.33
2019-03-08T06:41:13.415Z,32.30
2019-03-08T06:43:40.640Z,29.97
2019-03-08T06:46:07.927Z,25.23
2019-03-08T06:48:35.183Z,17.80
2019-03-08T06:51:02.457Z,22.87
2019-03-08T06:53:29.965Z,19.93
2019-03-08T06:55:57.201Z,26.20
2019-03-08T06:58:44.005Z,19.43
2019-03-08T07:01:15.420Z,14.17
2019-03-08T07:03:42.689Z,15.77
2019-03-08T07:06:09.964Z,17.00
2019-03-08T07:08:37.251Z,17.67
2019-03-08T07:11:04.580Z,11.33
2019-03-08T07:13:31.827Z,17.03
2019-03-08T07:15:59.061Z,19.80
2019-03-08T07:18:27.763Z,16.13
2019-03-08T07:21:14.551Z,21.77
2019-03-08T07:24:10.287Z,23.50
2019-03-08T07:26:50.098Z,24.73
2019-03-08T07:29:39.299Z,20.53
2019-03-08T07:32:26.121Z,18.47
2019-03-08T07:35:11.823Z,25.37
2019-03-08T07:38:01.432Z,20.77
2019-03-08T07:40:38.011Z,27.03
2019-03-08T07:43:24.799Z,19.40
2019-03-08T07:46:10.375Z,29.63
2019-03-08T07:48:57.204Z,25.20
2019-03-08T07:51:42.504Z,18.10
2019-03-08T07:54:25.041Z,18.17
2019-03-08T07:57:14.710Z,23.03
2019-03-08T08:00:04.115Z,19.83
2019-03-08T08:02:48.663Z,13.13
2019-03-08T08:05:57.964Z,13.23
2019-03-08T08:08:31.283Z,11.07
2019-03-08T08:11:36.000Z,16.97
2019-03-08T08:14:19.310Z,12.20
2019-03-08T08:16:55.752Z,12.13
2019-03-08T08:19:38.185Z,18.47
2019-03-08T08:22:19.154Z,12.07
2019-03-08T08:24:54.941Z,20.17
2019-03-08T08:27:38.883Z,16.37
2019-03-08T08:30:23.718Z,13.80
2019-03-08T08:33:23.362Z,13.90
2019-03-08T08:36:13.251Z,11.27
2019-03-08T08:38:48.202Z,18.07
2019-03-08T08:41:52.924Z,16.20
2019-03-08T08:44:53.115Z,19.53
2019-03-08T08:47:40.001Z,12.43
2019-03-08T08:50:29.964Z,14.57
2019-03-08T08:53:07.709Z,17.27
2019-03-08T08:55:41.335Z,14.20
2019-03-08T08:58:34.059Z,11.03
2019-03-08T09:01:17.115Z,15.57
2019-03-08T09:04:04.129Z,13.70
2019-03-08T09:06:53.496Z,14.37
2019-03-08T09:09:36.230Z,17.77
2019-03-08T09:12:11.582Z,15.67
2019-03-08T09:14:58.375Z,13.03
2019-03-08T09:18:00.074Z,15.67
2019-03-08T09:20:50.605Z,9.83
2019-03-08T09:23:27.011Z,17.47
2019-03-08T09:26:19.449Z,13.30
2019-03-08T09:28:52.620Z,12.93
2019-03-08T09:31:39.453Z,15.37
2019-03-08T09:34:26.294Z,19.87
2019-03-08T09:37:11.543Z,15.17
2019-03-08T09:39:54.754Z,19.20
2019-03-08T09:42:41.596Z,19.20
2019-03-08T09:45:32.136Z,19.40
2019-03-08T09:48:08.949Z,16.57
2019-03-08T09:50:59.945Z,18.97
2019-03-08T09:54:05.649Z,17.83
2019-03-08T09:56:52.470Z,18.97
2019-03-08T09:59:35.104Z,20.37
2019-03-08T10:02:09.067Z,18.70
2019-03-08T10:05:02.673Z,19.23
2019-03-08T10:08:01.740Z,16.80
2019-03-08T10:10:48.566Z,11.87
2019-03-08T10:13:41.053Z,19.53
2019-03-08T10:16:31.586Z,19.17
2019-03-08T10:19:12.640Z,19.13
2019-03-08T10:21:52.982Z,21.50
2019-03-08T10:24:51.825Z,16.67
2019-03-08T10:27:38.357Z,23.47
2019-03-08T10:30:31.891Z,18.87
2019-03-08T10:33:17.954Z,18.53
2019-03-08T10:36:17.189Z,18.47
2019-03-08T10:39:13.211Z,13.27
2019-03-08T10:42:06.341Z,15.93
2019-03-08T10:44:51.224Z,11.93
2019-03-08T10:47:37.918Z,16.33
2019-03-08T10:50:25.570Z,12.43
2019-03-08T10:53:20.727Z,10.33
2019-03-08T10:56:06.080Z,15.03
2019-03-08T10:58:36.460Z,15.70
2019-03-08T11:01:22.783Z,12.10
2019-03-08T11:04:07.131Z,9.83
2019-03-08T11:07:11.883Z,11.73
2019-03-08T11:09:57.499Z,12.67
2019-03-08T11:13:02.296Z,10.63
2019-03-08T11:15:44.400Z,14.80
2019-03-08T11:18:43.109Z,13.07
2019-03-08T11:21:18.399Z,21.97
2019-03-08T11:24:17.311Z,18.30
2019-03-08T11:27:05.207Z,13.30
2019-03-08T11:30:03.414Z,10.53
2019-03-08T11:32:46.277Z,14.57
2019-03-08T11:35:33.057Z,10.53
2019-03-08T11:38:05.243Z,13.50
2019-03-08T11:41:00.722Z,16.93
2019-03-08T11:43:39.481Z,12.13
2019-03-08T11:46:26.313Z,11.67
2019-03-08T11:49:28.219Z,15.83
2019-03-08T11:52:17.948Z,7.80
2019-03-08T11:55:04.807Z,13.23
2019-03-08T11:57:57.510Z,13.80
2019-03-08T12:00:31.029Z,15.50
2019-03-08T12:03:07.348Z,11.17
2019-03-08T12:05:44.159Z,11.93
2019-03-08T12:08:29.649Z,13.93
2019-03-08T12:11:27.640Z,10.93
2019-03-08T12:14:07.926Z,12.83
2019-03-08T12:17:01.298Z,10.63
2019-03-08T12:19:51.006Z,13.87
2019-03-08T12:22:36.352Z,14.87
2019-03-08T12:25:18.720Z,12.10
2019-03-08T12:28:11.423Z,10.57
2019-03-08T12:30:56.813Z,10.33
2019-03-08T12:33:43.703Z,12.00
2019-03-08T12:36:45.275Z,11.17
2019-03-08T12:39:30.707Z,11.03
2019-03-08T12:42:20.362Z,11.70
2019-03-08T12:45:13.106Z,11.33
2019-03-08T12:47:54.843Z,11.53
2019-03-08T12:50:35.946Z,8.13
2019-03-08T12:53:20.531Z,12.50
2019-03-08T12:56:09.962Z,7.90
2019-03-08T12:58:55.310Z,9.37
2019-03-08T13:01:38.528Z,16.47
2019-03-08T13:04:13.512Z,13.23
2019-03-08T13:07:00.426Z,11.00
2019-03-08T13:09:45.512Z,13.43
2019-03-08T13:12:12.808Z,10.20
2019-03-08T13:14:40.083Z,13.50
2019-03-08T13:17:07.312Z,12.80
2019-03-08T13:19:36.145Z,11.57
2019-03-08T13:22:05.734Z,10.93
2019-03-08T13:24:33.048Z,8.53
2019-03-08T13:27:00.362Z,6.93
2019-03-08T13:29:27.711Z,6.23
2019-03-08T13:31:55.123Z,8.63
2019-03-08T13:34:22.425Z,6.23
2019-03-08T13:36:49.791Z,8.13
2019-03-08T13:39:17.102Z,5.93
2019-03-08T13:41:44.430Z,8.23
2019-03-08T13:44:11.772Z,11.20
2019-03-08T13:46:39.038Z,6.20
2019-03-08T13:49:06.433Z,7.20
2019-03-08T13:51:35.982Z,11.37
2019-03-08T13:54:03.726Z,5.33
2019-03-08T13:56:30.965Z,8.63
2019-03-08T13:58:58.185Z,9.90
2019-03-08T14:01:25.684Z,7.57
2019-03-08T14:03:52.952Z,5.90
2019-03-08T14:06:20.203Z,6.83
2019-03-08T14:08:47.598Z,7.00
2019-03-08T14:11:14.843Z,6.37
2019-03-08T14:13:44.807Z,7.53
2019-03-08T14:16:12.211Z,11.97
2019-03-08T14:18:39.465Z,6.97
2019-03-08T14:21:06.898Z,10.20
2019-03-08T14:23:34.460Z,7.30
2019-03-08T14:26:01.765Z,9.43
2019-03-08T14:28:29.018Z,6.03
2019-03-08T14:31:04.735Z,9.93
2019-03-08T14:33:34.315Z,8.67
2019-03-08T14:36:02.962Z,8.10
2019-03-08T14:38:36.232Z,4.80
2019-03-08T14:41:09.597Z,15.30
2019-03-08T14:43:52.513Z,9.30
2019-03-08T14:46:36.634Z,10.87
2019-03-08T14:49:04.009Z,7.90
2019-03-08T14:51:31.299Z,6.53
2019-03-08T14:53:58.713Z,5.87
2019-03-08T14:56:25.997Z,7.90
2019-03-08T14:58:53.568Z,4.93
2019-03-08T15:01:20.980Z,5.87
2019-03-08T15:03:48.334Z,9.07
2019-03-08T15:06:15.587Z,8.47
2019-03-08T15:08:44.952Z,4.87
2019-03-08T15:11:12.214Z,8.27
2019-03-08T15:13:39.698Z,10.10
2019-03-08T15:16:07.033Z,8.20
2019-03-08T15:18:34.537Z,6.97
2019-03-08T15:21:02.096Z,10.70
2019-03-08T15:23:29.442Z,14.70
2019-03-08T15:25:56.849Z,11.23
2019-03-08T15:28:24.401Z,10.73
2019-03-08T15:30:51.798Z,8.03
2019-03-08T15:33:19.076Z,8.73
2019-03-08T15:35:46.404Z,11.27
2019-03-08T15:38:13.768Z,13.33
2019-03-08T15:40:41.018Z,11.53
2019-03-08T15:43:09.589Z,13.73
2019-03-08T15:45:40.135Z,12.40
2019-03-08T15:48:06.644Z,16.53
2019-03-08T15:50:33.930Z,15.53
2019-03-08T15:53:04.655Z,13.20
2019-03-08T15:55:32.285Z,13.23
2019-03-08T15:57:59.770Z,11.27
2019-03-08T16:00:27.022Z,9.30
2019-03-08T16:02:54.792Z,11.33
2019-03-08T16:05:23.991Z,11.27
2019-03-08T16:07:51.209Z,9.07
2019-03-08T16:10:19.274Z,8.00
2019-03-08T16:12:46.613Z,10.13
2019-03-08T16:15:15.658Z,11.93
2019-03-08T16:17:42.940Z,10.37
2019-03-08T16:20:11.959Z,11.30
2019-03-08T16:22:39.338Z,12.33
2019-03-08T16:25:08.342Z,8.27
2019-03-08T16:27:37.729Z,11.90
2019-03-08T16:30:11.004Z,11.27
2019-03-08T16:32:46.254Z,9.10
2019-03-08T16:35:13.550Z,8.80
2019-03-08T16:38:00.654Z,11.50
2019-03-08T16:40:39.271Z,12.20
2019-03-08T16:43:24.601Z,9.77
2019-03-08T16:46:13.842Z,12.43
2019-03-08T16:48:47.506Z,8.57
2019-03-08T16:51:34.483Z,8.17
2019-03-08T16:54:20.960Z,12.70
2019-03-08T16:57:20.005Z,5.77
2019-03-08T16:59:57.672Z,12.30
2019-03-08T17:02:53.109Z,8.63
2019-03-08T17:05:55.017Z,12.40
2019-03-08T17:08:41.882Z,9.30
2019-03-08T17:11:28.987Z,9.07
2019-03-08T17:14:24.665Z,8.13
2019-03-08T17:17:11.475Z,7.73
2019-03-08T17:19:58.322Z,9.97
2019-03-08T17:22:42.940Z,8.97
2019-03-08T17:25:29.992Z,9.90
2019-03-08T17:28:07.027Z,10.90
2019-03-08T17:31:08.810Z,12.17
2019-03-08T17:34:01.601Z,7.60
2019-03-08T17:36:40.872Z,9.33
2019-03-08T17:39:18.758Z,12.03
2019-03-08T17:42:08.855Z,10.87
2019-03-08T17:45:07.786Z,11.10
2019-03-08T17:47:51.999Z,8.70
2019-03-08T17:50:29.875Z,7.77
2019-03-08T17:53:14.978Z,10.60
2019-03-08T17:56:00.624Z,6.67
2019-03-08T17:59:03.859Z,10.83
2019-03-08T18:01:46.645Z,9.13
2019-03-08T18:04:20.684Z,10.57
2019-03-08T18:07:05.895Z,7.50
2019-03-08T18:09:51.355Z,9.80
2019-03-08T18:12:44.033Z,12.50
2019-03-08T18:15:28.906Z,6.63
2019-03-08T18:18:01.983Z,7.63
2019-03-08T18:20:39.186Z,9.70
2019-03-08T18:23:17.630Z,7.53
2019-03-08T18:25:54.512Z,8.63
2019-03-08T18:28:50.555Z,8.07
2019-03-08T18:31:49.049Z,11.67
2019-03-08T18:34:36.788Z,5.83
2019-03-08T18:37:23.896Z,8.20
2019-03-08T18:40:17.202Z,10.30
2019-03-08T18:43:02.737Z,7.20
2019-03-08T18:45:55.582Z,9.33
2019-03-08T18:48:43.359Z,5.23
2019-03-08T18:51:24.611Z,7.63
2019-03-08T18:54:14.623Z,9.93
2019-03-08T18:57:04.620Z,7.00
2019-03-08T18:59:48.356Z,10.07
2019-03-08T19:02:35.025Z,7.93
2019-03-08T19:05:25.063Z,9.00
2019-03-08T19:08:09.407Z,9.53
2019-03-08T19:10:54.932Z,8.60
2019-03-08T19:13:49.102Z,8.63
2019-03-08T19:16:39.612Z,7.50
2019-03-08T19:19:24.767Z,7.57
2019-03-08T19:22:26.180Z,9.17
2019-03-08T19:25:24.438Z,10.23
2019-03-08T19:28:11.718Z,6.33
2019-03-08T19:31:07.650Z,9.47
2019-03-08T19:34:01.217Z,6.97
2019-03-08T19:36:57.576Z,7.93
2019-03-08T19:39:36.374Z,8.80
2019-03-08T19:42:14.370Z,7.30
2019-03-08T19:45:02.985Z,9.80
2019-03-08T19:47:48.964Z,11.97
2019-03-08T19:50:38.816Z,7.90
2019-03-08T19:53:34.336Z,10.03
2019-03-08T19:56:21.172Z,7.70
2019-03-08T19:59:05.641Z,9.13
2019-03-08T20:01:52.437Z,12.67
2019-03-08T20:04:35.013Z,8.23
2019-03-08T20:07:13.321Z,8.43
2019-03-08T20:09:56.796Z,11.80
2019-03-08T20:12:43.864Z,8.00
2019-03-08T20:15:23.053Z,7.40
2019-03-08T20:17:55.307Z,9.10
2019-03-08T20:20:34.859Z,10.57
2019-03-08T20:23:21.716Z,11.40
2019-03-08T20:26:20.684Z,11.67
2019-03-08T20:29:16.520Z,12.43
2019-03-08T20:31:55.556Z,7.87
2019-03-08T20:34:41.698Z,11.13
2019-03-08T20:37:27.547Z,11.37
2019-03-08T20:40:23.567Z,9.73
2019-03-08T20:43:13.089Z,9.03
2019-03-08T20:45:47.777Z,11.40
2019-03-08T20:48:15.202Z,8.17
2019-03-08T20:50:42.484Z,11.07
2019-03-08T20:53:09.769Z,10.80
2019-03-08T20:55:37.520Z,11.70
2019-03-08T20:58:04.856Z,13.27
2019-03-08T21:00:32.259Z,12.63
2019-03-08T21:03:00.714Z,12.57
2019-03-08T21:05:28.899Z,10.53
2019-03-08T21:07:56.195Z,9.17
2019-03-08T21:10:23.443Z,11.00
2019-03-08T21:12:50.669Z,12.03
2019-03-08T21:15:24.993Z,9.53
2019-03-08T21:17:47.096Z,10.50
2019-03-08T21:20:14.439Z,11.87
2019-03-08T21:22:42.301Z,10.97
2019-03-08T21:25:10.017Z,11.87
2019-03-08T21:27:37.256Z,10.00
2019-03-08T21:30:06.048Z,10.27
2019-03-08T21:32:33.324Z,11.10
2019-03-08T21:35:00.618Z,12.40
2019-03-08T21:37:27.858Z,10.00
2019-03-08T21:39:55.086Z,14.00
2019-03-08T21:42:22.364Z,11.20
2019-03-08T21:44:52.037Z,10.83
2019-03-08T21:47:19.290Z,10.03
2019-03-08T21:49:46.561Z,10.40
2019-03-08T21:52:13.809Z,13.00
2019-03-08T21:54:41.458Z,11.53
2019-03-08T21:57:08.695Z,12.33
2019-03-08T21:59:36.103Z,8.23
2019-03-08T22:02:03.335Z,13.13
2019-03-08T22:04:53.026Z,12.77
2019-03-08T22:07:20.268Z,10.40
2019-03-08T22:09:55.553Z,10.53
2019-03-08T22:12:22.804Z,11.97
2019-03-08T22:14:50.235Z,9.50
2019-03-08T22:17:17.538Z,14.07
2019-03-08T22:19:44.860Z,17.40
2019-03-08T22:22:12.123Z,12.87
2019-03-08T22:24:39.452Z,13.67
2019-03-08T22:27:06.700Z,9.20
2019-03-08T22:29:34.056Z,8.37
2019-03-08T22:32:01.363Z,11.97
2019-03-08T22:34:29.146Z,9.97
2019-03-08T22:36:56.459Z,8.90
2019-03-08T22:39:23.700Z,15.50
2019-03-08T22:41:50.994Z,13.73
2019-03-08T22:44:18.357Z,15.07
2019-03-08T22:46:46.557Z,11.43
2019-03-08T22:49:14.066Z,5.93
2019-03-08T22:51:41.405Z,9.10
2019-03-08T22:54:08.955Z,10.97
2019-03-08T22:56:36.248Z,13.50
2019-03-08T22:59:03.503Z,9.87
2019-03-08T23:01:46.393Z,10.97
2019-03-08T23:04:13.716Z,8.33
2019-03-08T23:06:41.050Z,13.10
2019-03-08T23:09:09.964Z,9.53
2019-03-08T23:11:37.236Z,10.17
2019-03-08T23:14:04.683Z,8.00
2019-03-08T23:16:31.931Z,9.63
2019-03-08T23:19:01.440Z,6.00
2019-03-08T23:21:29.002Z,6.63
2019-03-08T23:23:56.295Z,4.70
2019-03-08T23:26:23.539Z,6.27
2019-03-08T23:29:08.570Z,4.80
2019-03-08T23:31:58.112Z,7.27
2019-03-08T23:34:25.715Z,6.47
2019-03-08T23:36:52.966Z,7.67
2019-03-08T23:39:20.242Z,5.97
2019-03-08T23:41:47.494Z,4.80
2019-03-08T23:44:14.778Z,3.60
2019-03-08T23:46:42.070Z,4.40
2019-03-08T23:49:09.372Z,5.43
2019-03-08T23:51:37.100Z,5.00
2019-03-08T23:54:04.489Z,7.03
2019-03-08T23:56:31.747Z,7.10
2019-03-08T23:58:59.045Z,5.67
